createdAt,value
2023-04-03T00:02:46.710Z,91.23
2023-04-03T00:05:49.440Z,90.64
2023-04-03T00:08:52.420Z,90.68
2023-04-03T00:11:55.088Z,90.94
2023-04-03T00:14:57.702Z,90.70
2023-04-03T00:18:02.241Z,90.56
2023-04-03T00:21:05.643Z,89.91
2023-04-03T00:24:08.508Z,89.93
2023-04-03T00:27:12.048Z,90.09
2023-04-03T00:30:17.618Z,90.72
2023-04-03T00:33:22.623Z,90.55
2023-04-03T00:36:25.479Z,90.68
2023-04-03T00:39:28.237Z,90.91
2023-04-03T00:42:30.987Z,90.83
2023-04-03T00:45:37.298Z,90.58
2023-04-03T00:48:44.255Z,90.94
2023-04-03T00:51:47.329Z,91.15
2023-04-03T00:54:52.086Z,90.53
2023-04-03T00:57:56.924Z,91.16
2023-04-03T01:01:00.917Z,90.71
2023-04-03T01:04:06.876Z,91.42
2023-04-03T01:07:12.524Z,91.58
2023-04-03T01:10:18.086Z,91.14
2023-04-03T01:13:27.552Z,91.45
2023-04-03T01:16:31.955Z,91.19
2023-04-03T01:19:40.679Z,91.00
2023-04-03T01:22:52.720Z,91.07
2023-04-03T01:25:57.496Z,91.33
2023-04-03T01:29:01.802Z,90.94
2023-04-03T01:32:06.416Z,91.18
2023-04-03T01:35:11.015Z,91.61
2023-04-03T01:38:13.579Z,91.44
2023-04-03T01:41:16.855Z,91.73
2023-04-03T01:44:19.557Z,91.07
2023-04-03T01:47:24.101Z,90.32
2023-04-03T01:50:26.828Z,90.75
2023-04-03T01:53:29.442Z,90.72
2023-04-03T01:56:32.320Z,91.30
2023-04-03T01:59:34.952Z,91.40
2023-04-03T02:02:38.988Z,91.14
2023-04-03T02:05:41.578Z,91.16
2023-04-03T02:08:44.176Z,91.28
2023-04-03T02:11:46.760Z,91.07
2023-04-03T02:14:49.378Z,90.61
2023-04-03T02:17:53.770Z,90.65
2023-04-03T02:20:56.391Z,91.40
2023-04-03T02:23:59.000Z,91.10
2023-04-03T02:27:01.644Z,91.18
2023-04-03T02:30:05.030Z,90.92
2023-04-03T02:33:08.971Z,91.38
2023-04-03T02:36:11.672Z,91.65
2023-04-03T02:39:14.357Z,91.26
2023-04-03T02:42:16.999Z,91.33
2023-04-03T02:45:19.590Z,90.99
2023-04-03T02:48:23.599Z,91.51
2023-04-03T02:51:26.305Z,90.80
2023-04-03T02:54:31.370Z,91.14
2023-04-03T02:57:34.016Z,91.70
2023-04-03T03:00:36.841Z,91.58
2023-04-03T03:03:40.981Z,91.57
2023-04-03T03:06:44.927Z,91.11
2023-04-03T03:09:47.698Z,91.06
2023-04-03T03:12:50.735Z,91.52
2023-04-03T03:15:53.334Z,91.53
2023-04-03T03:18:57.989Z,91.08
2023-04-03T03:22:01.860Z,91.06
2023-04-03T03:25:04.958Z,91.39
2023-04-03T03:28:08.144Z,90.49
2023-04-03T03:31:11.545Z,90.82
2023-04-03T03:34:15.571Z,91.45
2023-04-03T03:37:18.159Z,91.58
2023-04-03T03:40:20.950Z,91.61
2023-04-03T03:43:23.590Z,92.01
2023-04-03T03:46:26.298Z,91.76
2023-04-03T03:49:30.313Z,91.43
2023-04-03T03:52:32.895Z,91.63
2023-04-03T03:55:35.915Z,90.82
2023-04-03T03:58:38.834Z,90.72
2023-04-03T04:01:41.665Z,91.56
2023-04-03T04:04:45.622Z,91.55
2023-04-03T04:07:51.750Z,91.36
2023-04-03T04:10:54.800Z,91.24
2023-04-03T04:13:57.406Z,90.91
2023-04-03T04:17:00.054Z,91.82
2023-04-03T04:20:05.936Z,91.20
2023-04-03T04:23:08.599Z,91.28
2023-04-03T04:26:11.353Z,91.09
2023-04-03T04:29:14.004Z,92.07
2023-04-03T04:32:16.614Z,91.83
2023-04-03T04:35:20.729Z,91.97
2023-04-03T04:38:23.496Z,91.66
2023-04-03T04:41:26.194Z,91.65
2023-04-03T04:44:28.809Z,91.58
2023-04-03T04:47:31.653Z,91.04
2023-04-03T04:50:35.743Z,91.24
2023-04-03T04:53:38.712Z,91.05
2023-04-03T04:56:41.361Z,90.97
2023-04-03T04:59:43.947Z,91.40
2023-04-03T05:02:46.562Z,91.22
2023-04-03T05:05:50.533Z,91.06
2023-04-03T05:08:53.111Z,90.98
2023-04-03T05:11:56.112Z,91.57
2023-04-03T05:14:58.724Z,91.61
2023-04-03T05:18:01.450Z,91.27
2023-04-03T05:21:05.902Z,91.29
2023-04-03T05:24:10.190Z,91.09
2023-04-03T05:27:12.801Z,91.41
2023-04-03T05:30:15.836Z,91.37
2023-04-03T05:33:18.417Z,91.98
2023-04-03T05:36:22.460Z,91.59
2023-04-03T05:39:25.233Z,92.66
2023-04-03T05:42:27.950Z,91.94
2023-04-03T05:45:30.809Z,91.94
2023-04-03T05:48:33.365Z,92.53
2023-04-03T05:51:38.560Z,93.22
2023-04-03T05:54:41.113Z,92.56
2023-04-03T05:57:43.945Z,92.76
2023-04-03T06:00:46.535Z,91.64
2023-04-03T06:03:49.326Z,91.91
2023-04-03T06:06:58.636Z,91.94
2023-04-03T06:10:01.391Z,91.98
2023-04-03T06:13:04.236Z,92.17
2023-04-03T06:16:07.625Z,92.34
2023-04-03T06:19:10.896Z,91.98
2023-04-03T06:22:15.515Z,91.22
2023-04-03T06:25:19.688Z,91.84
2023-04-03T06:28:22.283Z,92.17
2023-04-03T06:31:25.402Z,90.99
2023-04-03T06:34:28.550Z,89.53
2023-04-03T06:37:33.282Z,89.47
2023-04-03T06:40:36.659Z,89.08
2023-04-03T06:43:39.514Z,89.20
2023-04-03T06:46:42.198Z,87.78
2023-04-03T06:49:45.667Z,87.56
2023-04-03T06:52:49.617Z,86.23
2023-04-03T06:55:52.194Z,87.76
2023-04-03T06:58:55.735Z,87.27
2023-04-03T07:01:59.652Z,86.41
2023-04-03T07:05:02.327Z,86.84
2023-04-03T07:08:07.159Z,85.45
2023-04-03T07:11:10.902Z,86.27
2023-04-03T07:14:13.484Z,84.91
2023-04-03T07:17:16.110Z,84.67
2023-04-03T07:20:18.880Z,84.50
2023-04-03T07:23:22.989Z,83.53
2023-04-03T07:26:26.565Z,82.92
2023-04-03T07:29:29.539Z,81.54
2023-04-03T07:32:32.116Z,80.64
2023-04-03T07:35:34.787Z,79.34
2023-04-03T07:38:39.326Z,78.50
2023-04-03T07:41:42.093Z,79.43
2023-04-03T07:44:44.750Z,78.11
2023-04-03T07:47:47.538Z,74.88
2023-04-03T07:50:51.412Z,74.61
2023-04-03T07:53:55.648Z,71.91
2023-04-03T07:56:58.610Z,69.12
2023-04-03T08:00:01.227Z,65.81
2023-04-03T08:03:03.976Z,65.26
2023-04-03T08:06:11.876Z,65.92
2023-04-03T08:09:19.616Z,64.65
2023-04-03T08:12:22.199Z,62.43
2023-04-03T08:15:25.037Z,63.80
2023-04-03T08:18:28.488Z,63.44
2023-04-03T08:21:31.328Z,61.73
2023-04-03T08:24:36.492Z,61.53
2023-04-03T08:27:40.443Z,61.36
2023-04-03T08:30:44.688Z,55.50
2023-04-03T08:33:47.433Z,53.49
2023-04-03T08:36:50.276Z,54.35
2023-04-03T08:39:54.354Z,52.96
2023-04-03T08:43:21.112Z,50.28
2023-04-03T08:46:28.367Z,45.94
2023-04-03T08:49:34.952Z,46.94
2023-04-03T08:52:42.776Z,45.28
2023-04-03T08:55:48.527Z,48.01
2023-04-03T08:58:55.827Z,45.56
2023-04-03T09:02:00.457Z,47.10
2023-04-03T09:05:04.402Z,47.01
2023-04-03T09:08:13.681Z,43.24
2023-04-03T09:11:24.209Z,42.60
2023-04-03T09:14:35.138Z,44.51
2023-04-03T09:17:44.426Z,42.21
2023-04-03T09:20:55.871Z,42.76
2023-04-03T09:24:01.497Z,41.83
2023-04-03T09:27:08.955Z,43.69
2023-04-03T09:30:17.040Z,41.50
2023-04-03T09:33:19.907Z,41.06
2023-04-03T09:36:43.252Z,40.03
2023-04-03T09:39:56.983Z,40.26
2023-04-03T09:43:02.934Z,38.31
2023-04-03T09:46:25.168Z,40.86
2023-04-03T09:49:27.992Z,41.80
2023-04-03T09:52:32.383Z,39.01
2023-04-03T09:55:43.824Z,38.96
2023-04-03T09:58:51.290Z,39.57
2023-04-03T10:02:02.057Z,38.17
2023-04-03T10:05:09.932Z,39.09
2023-04-03T10:08:24.823Z,42.00
2023-04-03T10:11:27.767Z,39.42
2023-04-03T10:14:31.986Z,39.21
2023-04-03T10:17:47.271Z,37.45
2023-04-03T10:20:53.249Z,36.52
2023-04-03T10:24:08.037Z,36.34
2023-04-03T10:27:14.869Z,36.51
2023-04-03T10:30:38.552Z,36.07
2023-04-03T10:33:57.884Z,36.95
2023-04-03T10:37:08.223Z,34.85
2023-04-03T10:40:21.425Z,36.46
2023-04-03T10:43:33.933Z,38.56
2023-04-03T10:46:40.515Z,37.97
2023-04-03T10:49:59.427Z,39.69
2023-04-03T10:53:10.092Z,42.19
2023-04-03T10:56:17.815Z,42.15
2023-04-03T10:59:30.226Z,43.24
2023-04-03T11:02:39.496Z,41.46
2023-04-03T11:05:46.385Z,37.61
2023-04-03T11:08:57.604Z,37.40
2023-04-03T11:12:06.664Z,36.79
2023-04-03T11:15:15.867Z,36.45
2023-04-03T11:18:24.838Z,36.09
2023-04-03T11:21:32.096Z,37.99
2023-04-03T11:24:36.012Z,39.75
2023-04-03T11:27:44.620Z,40.75
2023-04-03T11:30:52.403Z,42.53
2023-04-03T11:34:09.761Z,41.86
2023-04-03T11:37:23.927Z,43.37
2023-04-03T11:40:30.982Z,44.69
2023-04-03T11:43:35.381Z,45.91
2023-04-03T11:46:57.626Z,44.48
2023-04-03T11:50:03.745Z,43.66
2023-04-03T11:53:37.004Z,42.51
2023-04-03T11:56:39.631Z,43.39
2023-04-03T11:59:42.927Z,41.30
2023-04-03T12:02:53.686Z,38.08
2023-04-03T12:06:19.387Z,36.66
2023-04-03T12:09:27.935Z,39.12
2023-04-03T12:12:39.666Z,40.30
2023-04-03T12:15:58.030Z,41.73
2023-04-03T12:19:04.233Z,41.27
2023-04-03T12:22:17.885Z,41.99
2023-04-03T12:25:50.684Z,39.74
2023-04-03T12:28:54.749Z,40.08
2023-04-03T12:32:11.562Z,40.12
2023-04-03T12:35:23.674Z,38.89
2023-04-03T12:39:04.253Z,37.12
2023-04-03T12:42:25.642Z,35.09
2023-04-03T12:45:30.070Z,34.50
2023-04-03T12:48:35.713Z,32.26
2023-04-03T12:51:41.502Z,33.07
2023-04-03T12:54:48.501Z,34.99
2023-04-03T12:57:51.259Z,34.66
2023-04-03T13:01:05.549Z,37.15
2023-04-03T13:04:08.736Z,36.53
2023-04-03T13:07:22.038Z,36.28
2023-04-03T13:10:26.050Z,34.09
2023-04-03T13:13:28.891Z,32.68
2023-04-03T13:16:32.650Z,33.02
2023-04-03T13:19:35.367Z,33.00
2023-04-03T13:22:44.420Z,33.53
2023-04-03T13:25:50.443Z,34.59
2023-04-03T13:28:53.930Z,32.44
2023-04-03T13:31:58.796Z,31.86
2023-04-03T13:35:15.456Z,31.26
2023-04-03T13:38:27.024Z,32.75
2023-04-03T13:41:34.353Z,33.11
2023-04-03T13:44:40.401Z,32.57
2023-04-03T13:47:44.984Z,34.17
2023-04-03T13:51:18.767Z,32.68
2023-04-03T13:54:23.990Z,34.22
2023-04-03T13:57:28.265Z,33.63
2023-04-03T14:00:40.248Z,32.12
2023-04-03T14:03:47.909Z,32.46
2023-04-03T14:06:52.402Z,34.23
2023-04-03T14:09:56.054Z,34.36
2023-04-03T14:13:00.111Z,34.94
2023-04-03T14:16:15.102Z,34.39
2023-04-03T14:19:25.398Z,34.43
2023-04-03T14:22:30.295Z,34.55
2023-04-03T14:25:32.941Z,36.58
2023-04-03T14:28:37.339Z,35.79
2023-04-03T14:31:40.301Z,36.89
2023-04-03T14:34:44.019Z,37.13
2023-04-03T14:37:47.732Z,36.46
2023-04-03T14:40:50.530Z,37.28
2023-04-03T14:43:55.826Z,36.87
2023-04-03T14:46:58.518Z,36.06
2023-04-03T14:50:02.270Z,37.25
2023-04-03T14:53:05.716Z,38.25
2023-04-03T14:56:14.103Z,36.07
2023-04-03T14:59:20.863Z,37.94
2023-04-03T15:02:29.134Z,35.85
2023-04-03T15:05:32.016Z,35.31
2023-04-03T15:08:34.717Z,35.71
2023-04-03T15:11:37.312Z,37.58
2023-04-03T15:14:52.000Z,37.10
2023-04-03T15:17:58.740Z,37.86
2023-04-03T15:21:01.801Z,37.24
2023-04-03T15:24:04.690Z,38.35
2023-04-03T15:27:07.392Z,39.25
2023-04-03T15:30:16.566Z,39.17
2023-04-03T15:33:19.317Z,39.89
2023-04-03T15:36:33.221Z,40.95
2023-04-03T15:39:37.355Z,40.32
2023-04-03T15:42:40.446Z,40.53
2023-04-03T15:45:46.004Z,40.37
2023-04-03T15:48:50.449Z,40.59
2023-04-03T15:51:53.025Z,40.67
2023-04-03T15:54:55.621Z,39.84
2023-04-03T15:57:58.799Z,40.67
2023-04-03T16:01:03.359Z,41.62
2023-04-03T16:04:07.017Z,42.31
2023-04-03T16:07:09.801Z,41.48
2023-04-03T16:10:14.625Z,42.32
2023-04-03T16:13:17.300Z,43.22
2023-04-03T16:16:21.418Z,43.20
2023-04-03T16:19:25.309Z,44.73
2023-04-03T16:22:30.661Z,44.67
2023-04-03T16:25:33.554Z,45.57
2023-04-03T16:28:36.220Z,45.55
2023-04-03T16:31:40.470Z,45.11
2023-04-03T16:34:43.259Z,45.72
2023-04-03T16:37:46.463Z,47.17
2023-04-03T16:40:49.369Z,47.19
2023-04-03T16:43:52.073Z,48.21
2023-04-03T16:46:56.196Z,47.51
2023-04-03T16:49:58.983Z,48.01
2023-04-03T16:53:03.780Z,47.53
2023-04-03T16:56:06.771Z,47.96
2023-04-03T16:59:09.379Z,47.13
2023-04-03T17:02:13.489Z,47.92
2023-04-03T17:05:16.212Z,48.74
2023-04-03T17:08:19.827Z,46.54
2023-04-03T17:11:22.553Z,48.01
2023-04-03T17:14:25.222Z,48.79
2023-04-03T17:17:29.269Z,48.14
2023-04-03T17:20:34.567Z,48.62
2023-04-03T17:23:38.347Z,49.57
2023-04-03T17:26:41.918Z,49.00
2023-04-03T17:29:44.493Z,49.41
2023-04-03T17:32:48.462Z,49.42
2023-04-03T17:35:51.110Z,49.01
2023-04-03T17:38:53.725Z,50.07
2023-04-03T17:41:56.514Z,50.02
2023-04-03T17:45:00.892Z,49.75
2023-04-03T17:48:05.777Z,51.82
2023-04-03T17:51:09.574Z,49.92
2023-04-03T17:54:12.423Z,51.30
2023-04-03T17:57:15.007Z,50.99
2023-04-03T18:00:18.916Z,50.28
2023-04-03T18:03:22.888Z,51.47
2023-04-03T18:06:29.580Z,51.97
2023-04-03T18:09:34.427Z,51.60
2023-04-03T18:12:37.784Z,52.26
2023-04-03T18:15:45.523Z,53.19
2023-04-03T18:18:54.024Z,53.42
2023-04-03T18:22:09.458Z,53.88
2023-04-03T18:25:14.162Z,54.03
2023-04-03T18:28:16.800Z,54.37
2023-04-03T18:31:19.905Z,54.14
2023-04-03T18:34:23.993Z,55.45
2023-04-03T18:37:26.867Z,55.51
2023-04-03T18:40:29.531Z,55.33
2023-04-03T18:43:32.504Z,56.66
2023-04-03T18:46:35.326Z,56.03
2023-04-03T18:49:41.846Z,57.64
2023-04-03T18:52:44.536Z,57.98
2023-04-03T18:55:47.330Z,57.29
2023-04-03T18:58:49.979Z,58.65
2023-04-03T19:01:52.911Z,58.65
2023-04-03T19:04:57.397Z,58.64
2023-04-03T19:08:00.173Z,58.41
2023-04-03T19:11:03.655Z,59.77
2023-04-03T19:14:15.952Z,59.33
2023-04-03T19:17:18.996Z,60.61
2023-04-03T19:20:23.008Z,59.99
2023-04-03T19:23:25.984Z,61.49
2023-04-03T19:26:28.639Z,61.82
2023-04-03T19:29:31.301Z,62.05
2023-04-03T19:32:33.947Z,61.69
2023-04-03T19:35:41.687Z,62.52
2023-04-03T19:38:44.503Z,63.13
2023-04-03T19:41:47.316Z,63.33
2023-04-03T19:44:50.579Z,64.12
2023-04-03T19:47:53.554Z,64.46
2023-04-03T19:50:57.576Z,64.33
2023-04-03T19:54:00.256Z,64.24
2023-04-03T19:57:03.024Z,64.72
2023-04-03T20:00:06.501Z,64.72
2023-04-03T20:03:09.194Z,65.04
2023-04-03T20:06:13.197Z,64.44
2023-04-03T20:09:16.076Z,64.97
2023-04-03T20:12:18.664Z,64.85
2023-04-03T20:15:21.335Z,66.20
2023-04-03T20:18:24.062Z,66.78
2023-04-03T20:21:32.406Z,67.09
2023-04-03T20:24:35.117Z,66.90
2023-04-03T20:27:39.497Z,67.06
2023-04-03T20:30:43.141Z,66.87
2023-04-03T20:33:46.139Z,66.56
2023-04-03T20:36:50.350Z,67.26
2023-04-03T20:39:53.398Z,67.78
2023-04-03T20:42:56.743Z,68.10
2023-04-03T20:46:00.540Z,68.27
2023-04-03T20:49:03.135Z,69.24
2023-04-03T20:52:07.119Z,68.75
2023-04-03T20:55:10.844Z,69.45
2023-04-03T20:58:13.582Z,70.42
2023-04-03T21:01:19.045Z,70.43
2023-04-03T21:04:26.519Z,71.33
2023-04-03T21:08:06.454Z,71.36
2023-04-03T21:11:47.030Z,71.96
2023-04-03T21:15:27.128Z,70.66
2023-04-03T21:19:01.952Z,69.44
2023-04-03T21:22:04.582Z,69.53
2023-04-03T21:25:08.830Z,71.05
2023-04-03T21:28:11.430Z,71.29
2023-04-03T21:31:15.185Z,71.19
2023-04-03T21:34:20.877Z,70.53
2023-04-03T21:37:23.844Z,70.67
2023-04-03T21:40:26.772Z,70.84
2023-04-03T21:43:29.634Z,70.96
2023-04-03T21:46:32.330Z,70.85
2023-04-03T21:49:36.276Z,71.38
2023-04-03T21:52:38.875Z,71.08
2023-04-03T21:55:41.493Z,70.99
2023-04-03T21:58:44.231Z,70.18
2023-04-03T22:01:47.027Z,70.83
2023-04-03T22:04:51.032Z,69.66
2023-04-03T22:07:54.224Z,69.33
2023-04-03T22:11:00.955Z,67.87
2023-04-03T22:14:03.546Z,68.82
2023-04-03T22:17:07.207Z,69.08
2023-04-03T22:20:11.865Z,70.46
2023-04-03T22:23:14.542Z,71.38
2023-04-03T22:26:17.530Z,71.66
2023-04-03T22:29:20.202Z,71.94
2023-04-03T22:32:22.834Z,71.16
2023-04-03T22:35:27.634Z,71.69
2023-04-03T22:38:30.320Z,72.60
2023-04-03T22:41:32.908Z,72.63
2023-04-03T22:44:36.686Z,73.72
2023-04-03T22:47:39.495Z,73.92
2023-04-03T22:50:43.867Z,72.64
2023-04-03T22:53:46.441Z,72.33
2023-04-03T22:56:49.064Z,71.97
2023-04-03T22:59:51.620Z,71.86
2023-04-03T23:02:54.337Z,71.92
2023-04-03T23:05:58.328Z,72.84
2023-04-03T23:09:01.140Z,73.68
2023-04-03T23:12:03.718Z,74.25
2023-04-03T23:15:07.537Z,74.03
2023-04-03T23:18:10.149Z,74.02
2023-04-03T23:21:14.152Z,72.91
2023-04-03T23:24:17.153Z,73.30
2023-04-03T23:27:19.785Z,73.38
2023-04-03T23:30:22.774Z,72.90
2023-04-03T23:33:25.427Z,72.52
2023-04-03T23:36:29.378Z,72.38
2023-04-03T23:39:33.020Z,72.55
2023-04-03T23:42:35.604Z,73.80
2023-04-03T23:45:38.563Z,71.88
2023-04-03T23:48:41.361Z,71.90
2023-04-03T23:51:45.463Z,72.52
2023-04-03T23:54:49.370Z,72.57
2023-04-03T23:57:51.972Z,72.66
